Nearby METAR Reports

 

KDAW - Rochester, New Hampshire, USA
Distance from station: SSE 10mi, 16km
Updated: Sat, 23-Oct-2021 1:13pm EDT
Mostly cloudy
Mostly cloudy
 Wind from calm
Wind: Calm
Temperature: 54°F , 12°C
Dew Point: 39°F , 4°C
Humidity: 58%
Barometer: 29.89 inHg , 1012.2 hPa
Clouds: Mostly cloudy
Visibility: 10 miles , 16 km
Cloud details: Partly cloudy 2700 ft
Mostly cloudy 3700 ft
2021/10/23 17:13 KDAW 231713Z AUTO 00000KT 10SM SCT027 BKN037 12/04 A2989 RMK AO2 T01220044
KSFM - Sanford Muni, Maine, USA
Distance from station: E 13mi, 21km
Updated: Sat, 23-Oct-2021 12:56pm EDT
Overcast
Overcast
 Wind from calm
Wind: Calm
Temperature: 52°F , 11°C
Dew Point: 43°F , 6°C
Humidity: 72%
Barometer: 29.90 inHg , 1012.5 hPa
Clouds: Overcast
Visibility: 10 miles , 16 km
Cloud details: Overcast 2400 ft
2021/10/23 16:56 KSFM 231656Z AUTO 00000KT 10SM OVC024 11/06 A2990 RMK AO2 SLP131 T01110056
 
KLCI - Laconia Muni, New Hampshire, USA
Distance from station: WNW 24mi, 39km
Updated: Sat, 23-Oct-2021 12:56pm EDT
Clear
Clear
 Wind from varies
Wind: varies 3 mph , 6 km/h
Temperature: 50°F , 10°C
Dew Point: 34°F , 1°C
Humidity: 54%
Barometer: 29.90 inHg , 1012.5 hPa
Clouds: Clear
Visibility: 10 miles , 16 km
2021/10/23 16:56 KLCI 231656Z AUTO VRB03KT 10SM CLR 10/01 A2990 RMK AO2 SLP128 T01000006